createdAt,value
2019-02-28T00:00:40.499Z,5.30
2019-02-28T00:03:07.269Z,5.30
2019-02-28T00:05:37.947Z,5.20
2019-02-28T00:08:05.651Z,5.20
2019-02-28T00:10:34.089Z,5.20
2019-02-28T00:13:02.473Z,5.20
2019-02-28T00:15:30.892Z,5.20
2019-02-28T00:17:59.266Z,5.20
2019-02-28T00:20:29.133Z,5.20
2019-02-28T00:22:57.719Z,5.10
2019-02-28T00:25:26.080Z,5.10
2019-02-28T00:27:54.421Z,5.10
2019-02-28T00:30:22.855Z,5.10
2019-02-28T00:32:51.208Z,5.00
2019-02-28T00:35:19.558Z,5.00
2019-02-28T00:37:47.913Z,5.10
2019-02-28T00:40:16.273Z,5.10
2019-02-28T00:42:44.598Z,5.10
2019-02-28T00:45:14.745Z,5.10
2019-02-28T00:47:43.141Z,5.10
2019-02-28T00:50:11.490Z,5.20
2019-02-28T00:52:39.796Z,5.10
2019-02-28T00:55:10.859Z,5.10
2019-02-28T00:57:39.211Z,5.10
2019-02-28T01:00:11.102Z,5.20
2019-02-28T01:02:39.472Z,5.20
2019-02-28T01:05:07.820Z,5.20
2019-02-28T01:07:36.182Z,5.20
2019-02-28T01:10:12.424Z,5.20
2019-02-28T01:12:40.843Z,5.20
2019-02-28T01:15:11.864Z,5.10
2019-02-28T01:17:40.219Z,5.10
2019-02-28T01:20:09.275Z,5.10
2019-02-28T01:22:37.661Z,5.10
2019-02-28T01:25:09.417Z,5.10
2019-02-28T01:27:39.211Z,5.10
2019-02-28T01:30:15.818Z,5.10
2019-02-28T01:32:49.835Z,5.10
2019-02-28T01:35:14.442Z,5.10
2019-02-28T01:37:42.739Z,5.10
2019-02-28T01:40:12.930Z,5.20
2019-02-28T01:42:41.316Z,5.20
2019-02-28T01:45:11.526Z,5.20
2019-02-28T01:47:39.921Z,5.10
2019-02-28T01:50:10.797Z,5.20
2019-02-28T01:52:44.378Z,5.20
2019-02-28T01:55:10.547Z,5.10
2019-02-28T01:57:42.501Z,5.20
2019-02-28T02:00:17.168Z,5.20
2019-02-28T02:02:45.458Z,5.20
2019-02-28T02:05:16.980Z,5.30
2019-02-28T02:07:44.555Z,5.30
2019-02-28T02:10:21.654Z,5.30
2019-02-28T02:12:51.561Z,5.40
2019-02-28T02:15:20.688Z,5.40
2019-02-28T02:17:49.076Z,5.40
2019-02-28T02:20:17.459Z,5.40
2019-02-28T02:22:45.761Z,5.40
2019-02-28T02:25:14.528Z,5.40
2019-02-28T02:27:42.936Z,5.40
2019-02-28T02:30:24.884Z,5.50
2019-02-28T02:32:53.303Z,5.40
2019-02-28T02:35:21.683Z,5.40
2019-02-28T02:37:50.037Z,5.40
2019-02-28T02:40:22.996Z,5.40
2019-02-28T02:42:50.115Z,5.40
2019-02-28T02:45:18.570Z,5.40
2019-02-28T02:47:46.965Z,5.40
2019-02-28T02:50:15.685Z,5.40
2019-02-28T02:52:44.014Z,5.50
2019-02-28T02:55:13.275Z,5.50
2019-02-28T02:57:41.812Z,5.50
2019-02-28T03:00:15.811Z,5.40
2019-02-28T03:02:44.514Z,5.40
2019-02-28T03:05:13.459Z,5.40
2019-02-28T03:07:41.847Z,5.40
2019-02-28T03:10:17.352Z,5.40
2019-02-28T03:12:43.104Z,5.40
2019-02-28T03:15:13.996Z,5.40
2019-02-28T03:17:46.584Z,5.40
2019-02-28T03:20:13.469Z,5.40
2019-02-28T03:22:41.853Z,5.40
2019-02-28T03:25:13.135Z,5.40
2019-02-28T03:27:41.461Z,5.40
2019-02-28T03:30:27.779Z,5.40
2019-02-28T03:32:47.592Z,5.40
2019-02-28T03:35:15.965Z,5.40
2019-02-28T03:37:44.543Z,5.40
2019-02-28T03:40:14.368Z,5.30
2019-02-28T03:42:42.761Z,5.20
2019-02-28T03:45:12.807Z,5.10
2019-02-28T03:47:41.186Z,5.00
2019-02-28T03:50:10.561Z,5.00
2019-02-28T03:52:43.787Z,4.90
2019-02-28T03:55:10.898Z,4.90
2019-02-28T03:57:39.275Z,4.80
2019-02-28T04:00:16.392Z,4.80
2019-02-28T04:02:44.734Z,4.80
2019-02-28T04:05:13.076Z,4.80
2019-02-28T04:07:41.423Z,4.80
2019-02-28T04:10:11.931Z,4.80
2019-02-28T04:12:44.863Z,4.80
2019-02-28T04:15:20.441Z,4.70
2019-02-28T04:17:48.775Z,4.70
2019-02-28T04:20:17.142Z,4.70
2019-02-28T04:22:45.567Z,4.70
2019-02-28T04:25:13.920Z,4.70
2019-02-28T04:27:42.351Z,4.70
2019-02-28T04:30:14.774Z,4.60
2019-02-28T04:32:43.795Z,4.60
2019-02-28T04:35:12.272Z,4.60
2019-02-28T04:37:45.019Z,4.60
2019-02-28T04:40:13.097Z,4.70
2019-02-28T04:42:41.470Z,4.80
2019-02-28T04:45:13.939Z,4.80
2019-02-28T04:47:42.301Z,4.80
2019-02-28T04:50:11.950Z,4.90
2019-02-28T04:52:46.830Z,5.00
2019-02-28T04:55:11.082Z,5.00
2019-02-28T04:57:39.527Z,5.00
2019-02-28T05:00:13.167Z,5.00
2019-02-28T05:02:41.575Z,5.00
2019-02-28T05:05:12.660Z,5.00
2019-02-28T05:07:39.959Z,4.90
2019-02-28T05:10:10.001Z,4.90
2019-02-28T05:12:39.867Z,4.90
2019-02-28T05:15:11.608Z,4.80
2019-02-28T05:17:39.973Z,4.80
2019-02-28T05:20:10.732Z,4.70
2019-02-28T05:22:41.716Z,4.70
2019-02-28T05:25:11.335Z,4.70
2019-02-28T05:27:39.696Z,4.70
2019-02-28T05:30:19.331Z,4.60
2019-02-28T05:32:45.520Z,4.70
2019-02-28T05:35:13.912Z,4.70
2019-02-28T05:37:46.690Z,4.70
2019-02-28T05:40:14.227Z,4.70
2019-02-28T05:42:42.665Z,4.70
2019-02-28T05:45:14.935Z,4.70
2019-02-28T05:47:46.096Z,4.70
2019-02-28T05:50:15.174Z,4.70
2019-02-28T05:52:43.209Z,4.70
2019-02-28T05:55:11.586Z,4.80
2019-02-28T05:57:43.354Z,4.80
2019-02-28T06:00:12.765Z,4.70
2019-02-28T06:02:41.112Z,4.70
2019-02-28T06:05:12.028Z,4.60
2019-02-28T06:07:39.471Z,4.70
2019-02-28T06:10:10.584Z,4.80
2019-02-28T06:12:40.435Z,4.90
2019-02-28T06:15:11.439Z,5.20
2019-02-28T06:17:39.745Z,5.80
2019-02-28T06:20:10.373Z,6.40
2019-02-28T06:22:38.752Z,6.70
2019-02-28T06:25:08.622Z,6.90
2019-02-28T06:27:41.607Z,7.30
2019-02-28T06:30:15.226Z,6.80
2019-02-28T06:32:43.531Z,7.10
2019-02-28T06:35:16.072Z,7.30
2019-02-28T06:37:41.974Z,8.00
2019-02-28T06:40:15.188Z,8.30
2019-02-28T06:42:46.933Z,8.70
2019-02-28T06:45:20.538Z,8.60
2019-02-28T06:47:50.120Z,8.60
2019-02-28T06:50:18.778Z,10.20
2019-02-28T06:52:47.155Z,11.50
2019-02-28T06:55:25.841Z,12.30
2019-02-28T06:57:54.263Z,12.70
2019-02-28T07:00:22.635Z,13.40
2019-02-28T07:02:50.996Z,13.90
2019-02-28T07:05:24.544Z,13.90
2019-02-28T07:07:50.176Z,13.80
2019-02-28T07:10:19.045Z,13.50
2019-02-28T07:12:47.366Z,13.20
2019-02-28T07:15:15.755Z,12.50
2019-02-28T07:17:46.441Z,12.50
2019-02-28T07:20:16.007Z,13.40
2019-02-28T07:22:44.381Z,13.80
2019-02-28T07:25:13.847Z,14.60
2019-02-28T07:27:42.541Z,14.80
2019-02-28T07:30:19.483Z,14.90
2019-02-28T07:32:48.067Z,15.60
2019-02-28T07:35:16.424Z,16.70
2019-02-28T07:37:44.717Z,17.20
2019-02-28T07:40:18.347Z,18.00
2019-02-28T07:42:46.820Z,18.40
2019-02-28T07:45:16.121Z,17.50
2019-02-28T07:47:44.794Z,16.20
2019-02-28T07:50:14.400Z,14.90
2019-02-28T07:52:42.797Z,13.60
2019-02-28T07:55:19.657Z,12.60
2019-02-28T07:57:50.959Z,11.70
2019-02-28T08:00:22.451Z,11.40
2019-02-28T08:02:50.736Z,11.20
2019-02-28T08:05:19.133Z,11.60
2019-02-28T08:07:52.102Z,12.50
2019-02-28T08:10:25.488Z,13.30
2019-02-28T08:12:53.879Z,14.00
2019-02-28T08:15:23.460Z,15.60
2019-02-28T08:17:51.829Z,16.70
2019-02-28T08:20:20.618Z,17.60
2019-02-28T08:22:48.959Z,17.40
2019-02-28T08:25:17.319Z,16.80
2019-02-28T08:27:46.333Z,16.00
2019-02-28T08:30:20.768Z,14.90
2019-02-28T08:32:49.241Z,14.30
2019-02-28T08:35:17.649Z,14.60
2019-02-28T08:37:46.037Z,15.00
2019-02-28T08:40:18.184Z,14.80
2019-02-28T08:42:46.542Z,16.20
2019-02-28T08:45:15.974Z,17.50
2019-02-28T08:47:44.402Z,18.30
2019-02-28T08:50:19.034Z,19.70
2019-02-28T08:52:48.368Z,20.90
2019-02-28T08:55:16.749Z,21.80
2019-02-28T08:57:54.153Z,22.10
2019-02-28T09:00:20.153Z,21.60
2019-02-28T09:02:52.199Z,20.10
2019-02-28T09:05:17.879Z,19.10
2019-02-28T09:07:50.713Z,17.80
2019-02-28T09:10:24.017Z,17.40
2019-02-28T09:12:52.325Z,18.20
2019-02-28T09:15:20.712Z,19.30
2019-02-28T09:17:50.835Z,19.60
2019-02-28T09:20:19.171Z,20.00
2019-02-28T09:22:47.552Z,20.20
2019-02-28T09:25:21.988Z,20.60
2019-02-28T09:27:51.106Z,21.10
2019-02-28T09:30:29.650Z,21.20
2019-02-28T09:32:58.951Z,21.10
2019-02-28T09:35:27.317Z,21.50
2019-02-28T09:37:55.750Z,21.70
2019-02-28T09:40:25.871Z,21.80
2019-02-28T09:42:57.280Z,21.80
2019-02-28T09:45:30.400Z,22.00
2019-02-28T09:48:02.007Z,22.70
2019-02-28T09:50:28.756Z,22.10
2019-02-28T09:52:57.134Z,22.30
2019-02-28T09:55:25.552Z,22.60
2019-02-28T09:57:55.016Z,21.90
2019-02-28T10:00:27.558Z,22.90
2019-02-28T10:02:57.158Z,24.10
2019-02-28T10:05:27.177Z,24.00
2019-02-28T10:08:01.479Z,24.30
2019-02-28T10:10:27.997Z,24.60
2019-02-28T10:12:56.973Z,25.00
2019-02-28T10:15:25.966Z,25.90
2019-02-28T10:17:54.252Z,25.40
2019-02-28T10:20:28.529Z,25.90
2019-02-28T10:22:57.132Z,26.10
2019-02-28T10:25:25.445Z,26.00
2019-02-28T10:27:54.679Z,25.70
2019-02-28T10:30:31.808Z,26.10
2019-02-28T10:32:57.828Z,26.70
2019-02-28T10:35:26.110Z,26.80
2019-02-28T10:37:58.523Z,27.00
2019-02-28T10:40:31.358Z,27.40
2019-02-28T10:42:59.763Z,26.70
2019-02-28T10:45:28.096Z,27.70
2019-02-28T10:47:56.472Z,27.90
2019-02-28T10:50:33.193Z,28.60
2019-02-28T10:53:04.262Z,28.90
2019-02-28T10:55:29.621Z,28.40
2019-02-28T10:57:58.076Z,28.10
2019-02-28T11:00:32.760Z,27.70
2019-02-28T11:03:02.230Z,26.90
2019-02-28T11:05:32.455Z,26.60
2019-02-28T11:08:01.462Z,26.30
2019-02-28T11:10:35.365Z,26.20
2019-02-28T11:13:02.094Z,26.70
2019-02-28T11:15:30.404Z,27.70
2019-02-28T11:17:58.782Z,27.70
2019-02-28T11:20:27.190Z,27.80
2019-02-28T11:22:55.687Z,26.90
2019-02-28T11:25:25.917Z,26.60
2019-02-28T11:27:54.706Z,25.80
2019-02-28T11:30:28.172Z,25.00
2019-02-28T11:32:56.534Z,24.60
2019-02-28T11:35:26.279Z,24.80
2019-02-28T11:37:54.565Z,24.60
2019-02-28T11:40:24.315Z,24.40
2019-02-28T11:42:53.284Z,24.20
2019-02-28T11:45:28.101Z,24.50
2019-02-28T11:47:58.531Z,24.50
2019-02-28T11:50:26.916Z,24.20
2019-02-28T11:52:55.345Z,23.80
2019-02-28T11:55:23.737Z,23.70
2019-02-28T11:57:52.494Z,23.80
2019-02-28T12:00:32.535Z,24.10
2019-02-28T12:03:00.822Z,24.20
2019-02-28T12:05:29.360Z,24.40
2019-02-28T12:07:57.906Z,24.10
2019-02-28T12:10:27.821Z,24.00
2019-02-28T12:12:56.454Z,23.70
2019-02-28T12:15:30.920Z,23.70
2019-02-28T12:18:03.649Z,23.50
2019-02-28T12:20:29.237Z,23.20
2019-02-28T12:22:57.661Z,23.20
2019-02-28T12:25:26.417Z,22.80
2019-02-28T12:27:55.301Z,22.80
2019-02-28T12:30:29.488Z,22.30
2019-02-28T12:32:57.793Z,22.00
2019-02-28T12:35:26.144Z,21.70
2019-02-28T12:37:55.032Z,21.40
2019-02-28T12:40:26.874Z,21.00
2019-02-28T12:42:55.228Z,20.60
2019-02-28T12:45:32.288Z,20.50
